Time;durP1;ratioP1;P1;durP2;ratioP2;P2;SDS_P1;SDS_P2;PMS_P1;PMS_P2;Temp;Humidity;BMP_temperature;BMP_pressure;BME280_temperature;BME280_humidity;BME280_pressure;Samples;Min_cycle;Max_cycle;Signal;HPM_P1;HPM_P2
2021/12/19 00:00:28;;;;;;;21.88;10.35;;;;;;;3.63;100.00;100682.25;5045387;28;20317;-66
2021/12/19 00:03:33;;;;;;;17.27;7.75;;;;;;;3.67;100.00;100678.94;5045041;28;20032;-66
2021/12/19 00:11:08;;;;;;;14.80;7.03;;;;;;;3.65;100.00;100680.63;5045246;28;20055;-66
2021/12/19 00:13:34;;;;;;;11.73;6.38;;;;;;;3.80;100.00;100673.41;5044132;28;20025;-66
2021/12/19 00:15:59;;;;;;;12.48;5.97;;;;;;;3.71;100.00;100653.94;5044807;28;20079;-66
2021/12/19 00:18:25;;;;;;;11.70;5.78;;;;;;;3.78;100.00;100659.44;5044509;28;20033;-66
2021/12/19 00:20:50;;;;;;;11.35;5.57;;;;;;;3.60;100.00;100640.47;5044797;28;20029;-66
2021/12/19 00:23:16;;;;;;;12.35;6.55;;;;;;;3.64;100.00;100662.31;5044647;28;20248;-66
2021/12/19 00:25:43;;;;;;;12.18;5.05;;;;;;;3.74;100.00;100662.72;5044769;28;20325;-66
2021/12/19 00:28:08;;;;;;;13.73;6.60;;;;;;;3.67;100.00;100652.91;5044583;28;20052;-66
2021/12/19 00:30:34;;;;;;;15.70;7.93;;;;;;;3.64;100.00;100676.22;5044604;28;20321;-66
2021/12/19 00:33:00;;;;;;;19.88;8.77;;;;;;;3.68;100.00;100680.75;5044235;28;20025;-66
2021/12/19 00:35:26;;;;;;;22.10;8.48;;;;;;;3.65;100.00;100669.31;5044516;28;20029;-66
2021/12/19 00:37:53;;;;;;;20.38;9.25;;;;;;;3.61;100.00;100673.47;5044465;28;20025;-66
2021/12/19 00:40:20;;;;;;;22.08;9.93;;;;;;;3.79;100.00;100669.03;5044413;28;20224;-66
2021/12/19 00:43:01;;;;;;;20.02;9.32;;;;;;;3.72;100.00;100663.50;5044575;28;20089;-66
2021/12/19 00:45:31;;;;;;;17.80;7.72;;;;;;;3.72;100.00;100660.91;5044603;28;20064;-66
2021/12/19 00:47:57;;;;;;;17.85;8.52;;;;;;;3.76;100.00;100653.28;5044270;28;20017;-66
2021/12/19 00:50:24;;;;;;;20.05;9.02;;;;;;;3.72;100.00;100651.38;5044244;28;20083;-66
2021/12/19 00:52:50;;;;;;;19.27;8.98;;;;;;;3.74;100.00;100652.31;5044247;28;20018;-66
2021/12/19 00:55:21;;;;;;;18.95;8.05;;;;;;;3.82;100.00;100656.13;5044239;28;20025;-66
2021/12/19 00:57:47;;;;;;;18.33;7.13;;;;;;;3.87;100.00;100656.31;5044185;28;20252;-66
2021/12/19 01:00:15;;;;;;;16.80;7.57;;;;;;;3.75;100.00;100648.91;5044212;28;20017;-66
2021/12/19 01:02:41;;;;;;;13.25;5.60;;;;;;;3.74;100.00;100641.88;5044010;28;20229;-66
2021/12/19 01:05:08;;;;;;;8.32;4.97;;;;;;;3.88;100.00;100648.56;5043997;28;20359;-66
2021/12/19 01:07:33;;;;;;;14.05;4.72;;;;;;;3.88;100.00;100640.72;5044011;28;20217;-66
2021/12/19 01:09:59;;;;;;;8.85;4.90;;;;;;;3.77;100.00;100634.19;5043678;28;20025;-66
2021/12/19 01:12:25;;;;;;;10.90;5.13;;;;;;;3.71;100.00;100623.56;5044055;28;20023;-66
2021/12/19 01:14:52;;;;;;;9.82;5.10;;;;;;;3.70;100.00;100624.38;5043937;28;20021;-66
2021/12/19 01:17:17;;;;;;;14.45;6.72;;;;;;;3.69;100.00;100625.22;5043995;28;20348;-66
2021/12/19 01:19:45;;;;;;;15.25;6.75;;;;;;;3.65;100.00;100638.97;5043699;28;20104;-66
2021/12/19 01:22:10;;;;;;;15.48;7.07;;;;;;;3.68;100.00;100631.25;5043764;28;20021;-66
2021/12/19 01:24:36;;;;;;;13.15;6.25;;;;;;;3.75;100.00;100641.09;5044690;28;20027;-66
2021/12/19 01:27:02;;;;;;;12.50;6.90;;;;;;;3.72;100.00;100635.75;5050476;28;20089;-66
2021/12/19 01:29:27;;;;;;;13.75;5.85;;;;;;;3.75;100.00;100630.66;5050262;28;20029;-66
2021/12/19 01:31:53;;;;;;;12.02;6.43;;;;;;;3.68;100.00;100638.19;5050400;28;20044;-66
2021/12/19 01:34:18;;;;;;;15.05;7.60;;;;;;;3.65;100.00;100628.53;5050402;28;20021;-66
2021/12/19 01:36:43;;;;;;;15.68;7.68;;;;;;;3.67;100.00;100626.88;5050369;28;20021;-66
2021/12/19 01:39:10;;;;;;;13.57;5.38;;;;;;;3.61;100.00;100621.41;5050326;28;20044;-66
2021/12/19 01:41:45;;;;;;;12.32;5.70;;;;;;;3.76;100.00;100616.81;5050306;28;20021;-66
2021/12/19 01:44:10;;;;;;;16.48;7.20;;;;;;;3.75;100.00;100615.03;5050406;28;20033;-66
2021/12/19 01:46:36;;;;;;;15.95;6.70;;;;;;;3.68;100.00;100613.03;5050298;28;20025;-66
2021/12/19 01:49:02;;;;;;;17.00;7.40;;;;;;;3.51;100.00;100614.06;5050280;28;20048;-66
2021/12/19 01:51:27;;;;;;;17.95;8.65;;;;;;;3.48;100.00;100613.94;5050298;28;20088;-66
2021/12/19 01:53:53;;;;;;;15.68;7.65;;;;;;;3.64;100.00;100621.53;5050326;28;20033;-66
2021/12/19 01:56:19;;;;;;;16.30;7.60;;;;;;;3.65;100.00;100615.53;5050028;28;20045;-66
2021/12/19 01:58:46;;;;;;;16.85;7.35;;;;;;;3.53;100.00;100621.94;5050021;28;20076;-66
2021/12/19 02:01:11;;;;;;;18.00;8.55;;;;;;;3.69;100.00;100614.81;5050023;28;20025;-66
2021/12/19 02:03:37;;;;;;;29.00;9.95;;;;;;;3.64;100.00;100613.72;5050096;28;20035;-66
2021/12/19 02:06:03;;;;;;;14.40;6.88;;;;;;;3.71;100.00;100613.16;5050343;28;20323;-66
2021/12/19 02:08:29;;;;;;;15.48;6.15;;;;;;;3.67;100.00;100608.63;5050111;28;20028;-66
2021/12/19 02:10:54;;;;;;;12.82;5.45;;;;;;;3.73;100.00;100613.19;5050148;28;20432;-66
2021/12/19 02:13:20;;;;;;;12.68;5.63;;;;;;;3.74;100.00;100602.81;5050110;28;20031;-66
2021/12/19 02:15:46;;;;;;;11.43;5.75;;;;;;;3.71;100.00;100594.03;5050038;28;20202;-66
2021/12/19 02:18:18;;;;;;;13.00;6.03;;;;;;;3.60;100.00;100597.91;5049871;28;20082;-66
2021/12/19 02:20:52;;;;;;;20.23;8.63;;;;;;;3.47;100.00;100609.56;5050288;28;20021;-66
2021/12/19 02:23:20;;;;;;;16.25;7.82;;;;;;;3.48;100.00;100613.06;5050028;28;20022;-66
2021/12/19 02:25:46;;;;;;;17.98;8.27;;;;;;;3.41;100.00;100608.41;5049752;28;20093;-66
2021/12/19 02:28:12;;;;;;;22.77;8.55;;;;;;;3.49;100.00;100612.25;5049952;28;20025;-66
2021/12/19 02:30:38;;;;;;;21.00;8.95;;;;;;;3.50;100.00;100620.09;5050225;28;20064;-66
2021/12/19 02:33:10;;;;;;;20.85;9.05;;;;;;;3.42;100.00;100618.91;5049824;28;20009;-66
2021/12/19 02:35:35;;;;;;;23.77;8.27;;;;;;;3.50;100.00;100627.03;5049838;28;20047;-66
2021/12/19 02:48:30;;;;;;;18.52;7.95;;;;;;;3.42;100.00;100608.50;5046656;28;20032;-66
2021/12/19 02:50:56;;;;;;;23.60;7.45;;;;;;;3.44;100.00;100605.94;5046469;28;20029;-66
2021/12/19 02:53:34;;;;;;;10.93;5.43;;;;;;;3.52;100.00;100600.25;5046425;28;20256;-66
2021/12/19 02:56:02;;;;;;;13.68;7.05;;;;;;;3.57;100.00;100590.88;5046441;28;20076;-66
2021/12/19 02:58:32;;;;;;;10.77;6.07;;;;;;;3.70;100.00;100593.13;5046151;28;20233;-66
2021/12/19 03:00:59;;;;;;;10.73;5.43;;;;;;;3.68;100.00;100586.09;5046333;28;20026;-66
2021/12/19 03:03:24;;;;;;;9.15;4.97;;;;;;;3.66;100.00;100578.22;5046198;28;20029;-66
2021/12/19 03:05:50;;;;;;;11.82;5.15;;;;;;;3.69;100.00;100567.94;5046240;28;20053;-66
2021/12/19 03:08:15;;;;;;;7.75;4.40;;;;;;;3.72;100.00;100567.16;5046042;28;20025;-66
2021/12/19 03:18:39;;;;;;;11.18;5.55;;;;;;;3.78;100.00;100562.19;5045760;28;20040;-66
2021/12/19 03:21:09;;;;;;;8.65;4.43;;;;;;;3.77;100.00;100545.66;5045855;28;20028;-66
2021/12/19 03:23:35;;;;;;;7.40;3.92;;;;;;;3.73;100.00;100537.66;5045733;28;20084;-66
2021/12/19 03:26:00;;;;;;;8.75;4.88;;;;;;;3.60;100.00;100541.53;5045859;28;20036;-66
2021/12/19 03:28:26;;;;;;;9.65;5.45;;;;;;;3.56;100.00;100544.84;5045793;28;20025;-66
2021/12/19 03:30:51;;;;;;;16.30;5.68;;;;;;;3.59;100.00;100550.19;5045755;28;20021;-66
2021/12/19 03:33:16;;;;;;;14.40;5.00;;;;;;;3.63;100.00;100546.84;5045742;28;20044;-66
2021/12/19 03:35:43;;;;;;;13.23;5.95;;;;;;;3.64;100.00;100543.41;5045552;28;20032;-66
2021/12/19 03:38:10;;;;;;;11.80;5.10;;;;;;;3.64;100.00;100545.16;5045828;28;20029;-66
2021/12/19 03:40:39;;;;;;;10.73;5.28;;;;;;;3.68;100.00;100540.13;5045585;28;20029;-66
2021/12/19 03:43:07;;;;;;;8.90;4.80;;;;;;;3.71;100.00;100545.44;5045449;28;20321;-66
2021/12/19 03:45:34;;;;;;;8.52;4.32;;;;;;;3.76;100.00;100549.09;5045484;28;20029;-66
2021/12/19 03:48:01;;;;;;;11.00;4.88;;;;;;;3.76;100.00;100538.69;5044736;28;20025;-66
2021/12/19 03:50:26;;;;;;;9.55;4.80;;;;;;;3.77;100.00;100545.66;5044907;28;20088;-66
2021/12/19 03:52:54;;;;;;;10.10;4.60;;;;;;;3.73;100.00;100528.16;5045382;28;20030;-66
2021/12/19 03:55:21;;;;;;;10.45;5.72;;;;;;;3.66;100.00;100536.56;5045279;28;20075;-66
2021/12/19 03:57:48;;;;;;;8.30;4.03;;;;;;;3.62;100.00;100529.47;5045274;28;20041;-66
2021/12/19 04:00:16;;;;;;;13.27;5.60;;;;;;;3.56;100.00;100539.66;5045153;28;20029;-66
2021/12/19 04:02:42;;;;;;;11.20;5.70;;;;;;;3.61;100.00;100538.09;5045049;28;20030;-66
2021/12/19 04:05:08;;;;;;;14.80;5.95;;;;;;;3.68;100.00;100540.13;5045004;28;20081;-66
2021/12/19 04:07:33;;;;;;;14.60;6.20;;;;;;;3.66;100.00;100536.56;5044845;28;20029;-66
2021/12/19 04:09:59;;;;;;;10.18;5.03;;;;;;;3.54;100.00;100538.69;5044995;28;20051;-66
2021/12/19 04:12:27;;;;;;;13.88;6.63;;;;;;;3.54;100.00;100541.28;5044994;28;20084;-66
2021/12/19 04:14:53;;;;;;;14.43;5.85;;;;;;;3.64;100.00;100538.22;5044876;28;20030;-66
2021/12/19 04:17:19;;;;;;;12.07;5.97;;;;;;;3.66;100.00;100544.38;5044841;28;20051;-66
2021/12/19 04:19:44;;;;;;;10.55;4.85;;;;;;;3.70;100.00;100535.84;5044465;28;20053;-66
2021/12/19 04:22:10;;;;;;;11.52;5.97;;;;;;;3.73;100.00;100522.94;5044672;28;20341;-66
2021/12/19 04:24:35;;;;;;;11.55;5.95;;;;;;;3.78;100.00;100520.50;5044760;28;20021;-66
2021/12/19 04:27:01;;;;;;;13.80;6.05;;;;;;;3.78;100.00;100515.28;5044499;28;20395;-66
2021/12/19 04:29:26;;;;;;;12.27;6.40;;;;;;;3.72;100.00;100500.34;5044633;28;20025;-66
2021/12/19 04:31:53;;;;;;;17.42;5.45;;;;;;;3.76;100.00;100502.22;5044598;28;20041;-66
2021/12/19 04:34:18;;;;;;;12.95;5.72;;;;;;;3.72;100.00;100495.13;5044574;28;20036;-66
2021/12/19 04:36:47;;;;;;;13.35;5.43;;;;;;;3.78;100.00;100490.16;5044496;28;20029;-66
2021/12/19 04:53:14;;;;;;;10.25;4.88;;;;;;;3.65;100.00;100494.84;5044325;28;20343;-66
2021/12/19 04:56:03;;;;;;;9.73;4.38;;;;;;;3.74;100.00;100492.59;5044186;28;20075;-66
2021/12/19 05:06:49;;;;;;;8.27;4.03;;;;;;;3.57;100.00;100472.81;5044370;28;20079;-66
2021/12/19 05:14:06;;;;;;;8.90;4.28;;;;;;;3.56;100.00;100471.06;5024234;28;20025;-66
2021/12/19 05:14:45;;;;;;;7.45;3.80;;;;;;;3.64;100.00;100467.91;5035417;28;20035;-66
2021/12/19 05:17:17;;;;;;;8.27;3.67;;;;;;;3.68;100.00;100472.41;5043953;28;20325;-66
2021/12/19 05:20:03;;;;;;;9.20;4.47;;;;;;;3.56;100.00;100464.16;5043788;28;20041;-66
2021/12/19 05:22:32;;;;;;;8.90;4.28;;;;;;;3.60;100.00;100467.72;5043757;28;20040;-66
2021/12/19 05:25:07;;;;;;;6.20;3.75;;;;;;;3.56;100.00;100471.97;5044083;28;20055;-66
2021/12/19 05:27:32;;;;;;;6.80;3.83;;;;;;;3.53;100.00;100473.53;5043921;28;20045;-66
2021/12/19 05:29:58;;;;;;;8.95;4.80;;;;;;;3.46;100.00;100475.06;5043815;28;20036;-66
2021/12/19 05:32:24;;;;;;;11.23;5.35;;;;;;;3.34;100.00;100473.69;5043832;28;20379;-66
2021/12/19 05:34:49;;;;;;;11.52;5.45;;;;;;;3.31;100.00;100474.47;5043689;28;20041;-66
2021/12/19 05:45:27;;;;;;;9.15;4.43;;;;;;;3.42;100.00;100467.94;5043696;28;20028;-66
2021/12/19 05:47:52;;;;;;;8.93;4.38;;;;;;;3.39;100.00;100453.94;5043507;28;20092;-66
2021/12/19 05:50:21;;;;;;;9.73;5.05;;;;;;;3.49;100.00;100459.53;5043626;28;20029;-66
2021/12/19 05:52:48;;;;;;;6.53;3.55;;;;;;;3.46;100.00;100454.22;5043397;28;20124;-66
2021/12/19 05:55:16;;;;;;;6.55;3.50;;;;;;;3.42;100.00;100457.53;5043556;28;20025;-66
2021/12/19 05:57:42;;;;;;;9.85;4.75;;;;;;;3.44;100.00;100455.88;5043538;28;20029;-66
2021/12/19 06:00:12;;;;;;;9.02;4.25;;;;;;;3.38;100.00;100439.13;5043490;28;20025;-66
2021/12/19 06:02:39;;;;;;;11.40;5.13;;;;;;;3.39;100.00;100440.91;5043719;28;20318;-66
2021/12/19 06:05:05;;;;;;;10.10;4.50;;;;;;;3.40;100.00;100448.78;5043502;28;20309;-66
2021/12/19 06:07:31;;;;;;;9.73;4.82;;;;;;;3.41;100.00;100450.53;5043271;28;20029;-66
2021/12/19 06:09:57;;;;;;;8.15;4.45;;;;;;;3.45;100.00;100446.34;5043498;28;20203;-66
2021/12/19 06:12:22;;;;;;;9.23;4.43;;;;;;;3.35;100.00;100445.09;5044975;28;20029;-66
2021/12/19 06:14:48;;;;;;;10.23;4.88;;;;;;;3.36;100.00;100439.06;5047172;28;20325;-66
2021/12/19 06:17:13;;;;;;;9.77;4.38;;;;;;;3.46;100.00;100428.19;5047097;28;20025;-66
2021/12/19 06:19:39;;;;;;;9.25;4.35;;;;;;;3.36;100.00;100426.06;5046949;28;20061;-66
2021/12/19 06:22:06;;;;;;;8.60;4.68;;;;;;;3.36;100.00;100440.81;5046831;28;20217;-66
2021/12/19 06:24:33;;;;;;;8.60;4.93;;;;;;;3.28;100.00;100432.69;5047230;28;20025;-66
2021/12/19 06:26:59;;;;;;;8.68;3.58;;;;;;;3.36;100.00;100441.66;5046909;28;20025;-66
2021/12/19 06:29:29;;;;;;;7.63;4.30;;;;;;;3.37;100.00;100435.66;5047150;28;20089;-66
2021/12/19 06:31:55;;;;;;;8.95;4.53;;;;;;;3.43;100.00;100433.28;5046866;28;20080;-66
2021/12/19 06:34:21;;;;;;;10.05;4.53;;;;;;;3.37;100.00;100433.06;5046843;28;20091;-66
2021/12/19 06:36:46;;;;;;;8.00;4.07;;;;;;;3.40;100.00;100427.97;5047045;28;20025;-66
2021/12/19 06:39:12;;;;;;;9.07;4.30;;;;;;;3.45;100.00;100421.19;5046726;28;20032;-66
2021/12/19 06:41:37;;;;;;;6.78;3.80;;;;;;;3.54;100.00;100416.31;5046607;28;20026;-66
2021/12/19 06:44:04;;;;;;;7.03;3.70;;;;;;;3.52;100.00;100412.81;5046677;28;20029;-66
2021/12/19 06:46:30;;;;;;;7.32;3.85;;;;;;;3.51;100.00;100416.22;5046632;28;20036;-66
2021/12/19 06:48:56;;;;;;;6.28;3.63;;;;;;;3.56;100.00;100425.09;5046621;28;20344;-66
2021/12/19 06:51:22;;;;;;;8.80;4.10;;;;;;;3.55;100.00;100412.88;5046602;28;20021;-66
2021/12/19 06:53:47;;;;;;;7.15;3.67;;;;;;;3.51;100.00;100407.53;5046345;28;20021;-66
2021/12/19 06:56:13;;;;;;;9.13;5.13;;;;;;;3.46;100.00;100411.69;5046423;28;20264;-66
2021/12/19 06:58:39;;;;;;;7.90;4.40;;;;;;;3.57;100.00;100405.13;5046259;28;20041;-66
2021/12/19 07:01:04;;;;;;;7.70;3.83;;;;;;;3.62;100.00;100409.69;5046063;28;20322;-66
2021/12/19 07:03:29;;;;;;;8.73;4.60;;;;;;;3.44;100.00;100396.00;5045757;28;20028;-66
2021/12/19 07:05:55;;;;;;;8.63;4.40;;;;;;;3.44;100.00;100403.81;5045898;28;20351;-66
2021/12/19 07:08:21;;;;;;;7.75;3.92;;;;;;;3.45;100.00;100404.72;5045981;28;20128;-66
2021/12/19 07:10:47;;;;;;;7.38;3.88;;;;;;;3.39;100.00;100400.13;5045771;28;20026;-66
2021/12/19 07:13:18;;;;;;;9.43;4.40;;;;;;;3.46;100.00;100402.16;5045839;28;20021;-66
2021/12/19 07:15:44;;;;;;;8.45;4.45;;;;;;;3.50;100.00;100397.94;5045947;28;20025;-66
2021/12/19 07:18:09;;;;;;;8.35;4.05;;;;;;;3.41;100.00;100388.09;5045635;28;20056;-66
2021/12/19 07:20:35;;;;;;;9.70;4.88;;;;;;;3.48;100.00;100390.06;5045754;28;20044;-66
2021/12/19 07:23:01;;;;;;;8.57;3.95;;;;;;;3.49;100.00;100390.97;5045017;28;20092;-66
2021/12/19 07:25:27;;;;;;;10.02;4.30;;;;;;;3.54;100.00;100395.50;5045577;28;20032;-66
2021/12/19 07:27:52;;;;;;;8.90;4.47;;;;;;;3.36;100.00;100394.81;5045468;28;20029;-66
2021/12/19 07:30:18;;;;;;;9.40;4.28;;;;;;;3.47;100.00;100411.75;5045343;28;20021;-66
2021/12/19 07:32:43;;;;;;;10.25;5.35;;;;;;;3.43;100.00;100420.28;5044217;28;20021;-66
2021/12/19 07:35:10;;;;;;;8.43;3.97;;;;;;;3.45;100.00;100429.00;5044277;28;20096;-66
2021/12/19 07:37:38;;;;;;;8.40;3.85;;;;;;;3.51;100.00;100426.63;5035760;28;20028;-66
2021/12/19 07:40:17;;;;;;;8.15;3.90;;;;;;;3.60;100.00;100424.38;5044411;28;20021;-66
2021/12/19 07:42:44;;;;;;;7.82;4.05;;;;;;;3.56;99.76;100434.63;5044872;28;20025;-66
2021/12/19 07:45:11;;;;;;;8.05;4.10;;;;;;;3.40;99.92;100412.34;5044367;28;20048;-66
2021/12/19 07:47:38;;;;;;;8.82;4.10;;;;;;;3.41;100.00;100416.72;5044148;28;20025;-66
2021/12/19 07:50:04;;;;;;;12.00;4.68;;;;;;;3.42;100.00;100421.06;5044606;28;20317;-66
2021/12/19 07:52:29;;;;;;;12.35;4.50;;;;;;;3.33;100.00;100418.16;5044445;28;20021;-66
2021/12/19 07:54:55;;;;;;;25.02;8.32;;;;;;;3.34;100.00;100419.91;5044680;28;20067;-66
2021/12/19 07:57:20;;;;;;;8.95;4.70;;;;;;;3.40;100.00;100412.34;5044336;28;20029;-66
2021/12/19 07:59:45;;;;;;;12.65;6.22;;;;;;;3.32;100.00;100408.56;5043676;28;20089;-66
2021/12/19 08:02:11;;;;;;;16.85;8.48;;;;;;;3.33;100.00;100401.66;5044155;28;20032;-66
2021/12/19 08:04:37;;;;;;;14.25;7.68;;;;;;;3.23;100.00;100403.00;5044141;28;20029;-66
2021/12/19 08:07:02;;;;;;;12.10;6.00;;;;;;;3.26;100.00;100408.31;5044158;28;20052;-66
2021/12/19 08:09:40;;;;;;;12.98;6.53;;;;;;;3.36;100.00;100412.16;5044395;28;20242;-66
2021/12/19 08:12:06;;;;;;;12.35;6.50;;;;;;;3.36;100.00;100410.44;5024130;28;20017;-66
2021/12/19 08:14:32;;;;;;;13.30;5.90;;;;;;;3.41;100.00;100416.72;5038214;28;20313;-66
2021/12/19 08:16:58;;;;;;;9.73;4.68;;;;;;;3.55;100.00;100415.50;5043892;28;20028;-66
2021/12/19 08:19:23;;;;;;;11.68;5.57;;;;;;;3.56;100.00;100419.88;5043802;28;20079;-66
2021/12/19 08:21:49;;;;;;;12.70;6.03;;;;;;;3.59;100.00;100420.00;5043798;28;20304;-66
2021/12/19 08:24:14;;;;;;;11.70;5.90;;;;;;;3.55;100.00;100418.09;5043866;28;20021;-66
2021/12/19 08:26:42;;;;;;;12.88;5.70;;;;;;;3.64;100.00;100413.22;5043218;28;20092;-66
2021/12/19 08:29:08;;;;;;;13.73;6.63;;;;;;;3.67;100.00;100408.13;5043732;28;20029;-66
2021/12/19 08:31:34;;;;;;;11.60;6.10;;;;;;;3.67;100.00;100402.91;5043658;28;20020;-66
2021/12/19 08:33:59;;;;;;;11.98;6.78;;;;;;;3.73;100.00;100394.44;5043203;28;20096;-66
2021/12/19 08:36:25;;;;;;;12.57;6.22;;;;;;;3.74;100.00;100402.31;5043030;28;20088;-66
2021/12/19 08:38:50;;;;;;;12.98;6.55;;;;;;;3.70;100.00;100403.03;5043203;28;20025;-66
2021/12/19 08:41:16;;;;;;;15.23;6.97;;;;;;;3.69;100.00;100406.47;5043445;28;20028;-66
2021/12/19 08:43:41;;;;;;;15.55;6.93;;;;;;;3.65;100.00;100399.41;5043293;28;20133;-66
2021/12/19 08:46:09;;;;;;;13.95;6.80;;;;;;;3.82;100.00;100405.19;5044045;28;20367;-66
2021/12/19 08:48:34;;;;;;;13.93;6.55;;;;;;;3.73;99.64;100392.72;5044594;28;20024;-66
2021/12/19 08:51:00;;;;;;;13.68;7.40;;;;;;;3.56;100.00;100393.84;5044322;28;20025;-65
2021/12/19 08:53:25;;;;;;;11.25;6.40;;;;;;;3.60;100.00;100400.94;5044260;28;20068;-65
2021/12/19 08:55:51;;;;;;;13.25;7.05;;;;;;;3.57;100.00;100398.22;5044214;28;20063;-66
2021/12/19 08:58:16;;;;;;;14.80;7.70;;;;;;;3.68;100.00;100409.91;5044436;28;20029;-67
2021/12/19 09:00:42;;;;;;;12.63;6.45;;;;;;;3.71;100.00;100404.81;5044163;28;20237;-67
2021/12/19 09:03:08;;;;;;;14.05;7.43;;;;;;;3.71;100.00;100397.00;5031022;28;20048;-67
2021/12/19 09:05:34;;;;;;;14.68;6.93;;;;;;;3.77;100.00;100399.81;5024575;28;20336;-68
2021/12/19 09:08:00;;;;;;;14.30;7.55;;;;;;;3.67;100.00;100392.50;5038755;28;20021;-67
2021/12/19 09:10:26;;;;;;;14.10;7.43;;;;;;;3.75;100.00;100395.38;5043880;28;20080;-65
2021/12/19 09:12:52;;;;;;;16.52;8.48;;;;;;;3.80;100.00;100394.72;5043732;28;20021;-65
2021/12/19 09:15:18;;;;;;;14.57;7.55;;;;;;;3.91;100.00;100385.56;5043706;28;20029;-65
2021/12/19 09:17:43;;;;;;;12.18;6.82;;;;;;;3.89;100.00;100384.63;5043794;28;20325;-65
2021/12/19 09:20:09;;;;;;;12.93;6.70;;;;;;;3.97;99.44;100371.84;5043953;28;20025;-65
2021/12/19 09:22:35;;;;;;;12.82;7.18;;;;;;;4.01;99.36;100374.63;5043491;28;20317;-65
2021/12/19 09:25:01;;;;;;;12.38;7.22;;;;;;;4.05;99.37;100371.28;5043729;28;20044;-65
2021/12/19 09:27:26;;;;;;;14.68;8.43;;;;;;;4.05;99.13;100370.41;5043829;28;20221;-65
2021/12/19 09:29:52;;;;;;;18.55;9.40;;;;;;;3.89;99.69;100366.38;5043848;28;20092;-65
2021/12/19 09:32:18;;;;;;;25.48;14.07;;;;;;;3.80;99.99;100373.00;5043859;28;20237;-65
2021/12/19 09:34:43;;;;;;;21.88;10.15;;;;;;;3.87;100.00;100373.28;5043573;28;20021;-66
2021/12/19 09:37:09;;;;;;;24.63;11.32;;;;;;;3.77;100.00;100384.19;5043729;28;20241;-66
2021/12/19 09:39:34;;;;;;;25.45;13.20;;;;;;;3.81;100.00;100388.69;5043738;28;20025;-66
2021/12/19 09:42:09;;;;;;;20.55;10.15;;;;;;;3.90;100.00;100378.56;5043624;28;20045;-66
2021/12/19 09:44:35;;;;;;;24.13;11.23;;;;;;;3.95;100.00;100384.84;5043476;28;20029;-66
2021/12/19 09:47:01;;;;;;;21.90;10.00;;;;;;;4.04;100.00;100374.72;5044430;28;20041;-66
2021/12/19 09:49:27;;;;;;;19.27;9.90;;;;;;;4.02;100.00;100381.59;5047902;28;20025;-66
2021/12/19 09:51:52;;;;;;;18.73;9.15;;;;;;;3.99;100.00;100376.28;5047425;28;20017;-66
2021/12/19 09:54:19;;;;;;;14.68;8.80;;;;;;;4.11;100.00;100379.31;5047874;28;20313;-66
2021/12/19 09:56:45;;;;;;;18.02;9.02;;;;;;;4.14;100.00;100382.00;5047528;28;20037;-66
2021/12/19 09:59:17;;;;;;;14.82;7.93;;;;;;;4.11;100.00;100371.50;5047508;28;20025;-66
2021/12/19 10:01:42;;;;;;;15.20;7.80;;;;;;;4.21;99.42;100373.56;5047219;28;20079;-66
2021/12/19 10:04:27;;;;;;;12.88;7.55;;;;;;;4.17;98.46;100366.50;5047320;28;20100;-66
2021/12/19 10:07:08;;;;;;;12.10;7.55;;;;;;;4.04;99.56;100353.00;5047387;28;20026;-66
2021/12/19 10:09:37;;;;;;;16.60;8.25;;;;;;;4.18;98.93;100357.81;5047274;28;20032;-66
2021/12/19 10:15:04;;;;;;;16.80;8.95;;;;;;;4.18;99.10;100341.31;5047125;28;20067;-66
2021/12/19 10:17:29;;;;;;;21.67;10.63;;;;;;;4.19;99.86;100333.56;5047631;28;20048;-66
2021/12/19 10:20:03;;;;;;;16.90;9.52;;;;;;;4.23;99.67;100337.13;5046951;28;20037;-66
2021/12/19 10:22:32;;;;;;;17.15;10.00;;;;;;;4.26;99.82;100327.69;5047086;28;20034;-66
2021/12/19 10:25:07;;;;;;;21.67;10.35;;;;;;;4.24;99.19;100321.53;5047075;28;20088;-66
2021/12/19 10:27:33;;;;;;;17.77;9.82;;;;;;;4.37;98.84;100333.25;5046977;28;20105;-66
2021/12/19 10:29:59;;;;;;;17.35;9.75;;;;;;;4.22;99.18;100323.22;5046506;28;20318;-66
2021/12/19 10:32:24;;;;;;;17.52;9.35;;;;;;;4.22;98.85;100323.22;5046871;28;20072;-66
2021/12/19 10:34:50;;;;;;;21.20;10.60;;;;;;;4.33;98.66;100315.72;5046961;28;20033;-66
2021/12/19 10:37:32;;;;;;;17.17;9.52;;;;;;;4.27;98.96;100303.41;5046782;28;20052;-66
2021/12/19 10:40:04;;;;;;;19.73;10.77;;;;;;;4.27;99.18;100306.00;5046406;28;20042;-66
2021/12/19 10:42:34;;;;;;;18.23;10.20;;;;;;;4.31;99.21;100307.88;5046694;28;20022;-66
2021/12/19 10:47:44;;;;;;;18.17;9.98;;;;;;;4.37;99.27;100308.06;5046632;28;20024;-66
2021/12/19 10:50:09;;;;;;;21.73;11.23;;;;;;;4.48;99.44;100297.97;5046587;28;20025;-66
2021/12/19 10:52:39;;;;;;;17.33;10.57;;;;;;;4.51;98.71;100300.69;5046167;28;20017;-66
2021/12/19 10:55:10;;;;;;;19.13;10.63;;;;;;;4.49;97.80;100292.81;5046426;28;20347;-66
2021/12/19 10:57:40;;;;;;;18.05;10.55;;;;;;;4.50;99.10;100291.97;5045964;28;20048;-66
2021/12/19 11:00:26;;;;;;;23.90;13.15;;;;;;;4.48;98.82;100274.50;5046381;28;20029;-66
2021/12/19 11:02:51;;;;;;;25.45;13.25;;;;;;;4.44;98.54;100272.66;5046058;28;20107;-66
2021/12/19 11:05:40;;;;;;;22.63;12.90;;;;;;;4.46;97.78;100265.75;5046231;28;20288;-66
2021/12/19 11:08:08;;;;;;;25.38;13.63;;;;;;;4.35;97.96;100257.63;5046280;28;20088;-66
2021/12/19 11:10:37;;;;;;;20.05;11.27;;;;;;;4.27;97.99;100253.88;5045732;28;20213;-66
2021/12/19 11:13:14;;;;;;;21.33;11.50;;;;;;;4.21;98.88;100248.47;5045884;28;20021;-66
2021/12/19 11:15:41;;;;;;;23.83;11.93;;;;;;;4.30;98.47;100247.88;5045198;28;20022;-66
2021/12/19 11:18:07;;;;;;;22.92;12.02;;;;;;;4.58;99.03;100244.41;5045522;28;20107;-66
2021/12/19 11:20:33;;;;;;;21.52;11.23;;;;;;;4.68;98.51;100246.44;5046280;28;20309;-66
2021/12/19 11:22:59;;;;;;;23.15;11.32;;;;;;;4.72;97.35;100230.03;5045853;28;20021;-66
2021/12/19 11:25:26;;;;;;;21.50;11.52;;;;;;;4.78;97.76;100217.16;5045935;28;20021;-66
2021/12/19 11:27:51;;;;;;;20.23;9.73;;;;;;;4.75;98.58;100207.53;5045647;28;20178;-66
2021/12/19 11:30:18;;;;;;;23.63;12.60;;;;;;;4.90;98.66;100212.31;5045740;28;20039;-66
2021/12/19 11:32:58;;;;;;;21.80;11.85;;;;;;;4.92;97.37;100205.38;5045500;28;20025;-66
2021/12/19 11:35:28;;;;;;;24.00;12.48;;;;;;;4.83;97.20;100189.47;5045200;28;20272;-66
2021/12/19 11:38:02;;;;;;;22.38;11.82;;;;;;;4.80;96.16;100186.78;5054288;28;20053;-66
2021/12/19 11:40:34;;;;;;;23.65;11.38;;;;;;;4.82;97.03;100192.94;5055669;28;20089;-66
2021/12/19 11:43:18;;;;;;;28.33;13.85;;;;;;;4.93;97.38;100196.75;5048317;28;20033;-66
2021/12/19 11:45:56;;;;;;;24.55;14.25;;;;;;;4.96;97.25;100187.25;5048564;28;20087;-66
2021/12/19 11:50:54;;;;;;;25.27;12.57;;;;;;;5.01;96.89;100184.75;5053026;28;20009;-66
2021/12/19 11:53:29;;;;;;;20.52;11.98;;;;;;;4.99;96.78;100173.41;5045010;28;20023;-66
2021/12/19 11:56:08;;;;;;;24.58;12.88;;;;;;;5.03;96.78;100180.47;5044492;28;20025;-66
2021/12/19 11:58:51;;;;;;;23.00;11.82;;;;;;;5.00;96.58;100172.56;5043986;28;20029;-66
2021/12/19 12:01:19;;;;;;;21.58;11.70;;;;;;;5.06;96.49;100170.13;5044002;28;20033;-66
2021/12/19 12:03:49;;;;;;;18.50;10.27;;;;;;;5.02;95.44;100161.31;5043640;28;20028;-66
2021/12/19 12:06:17;;;;;;;24.10;12.27;;;;;;;4.91;96.03;100161.88;5043944;28;20021;-66
2021/12/19 12:09:07;;;;;;;21.70;11.85;;;;;;;5.00;95.89;100157.78;5041995;28;20017;-66
2021/12/19 12:11:35;;;;;;;20.80;10.75;;;;;;;5.09;96.49;100149.34;5046707;28;20063;-66
2021/12/19 12:14:23;;;;;;;20.08;10.60;;;;;;;5.01;95.95;100151.75;5054244;28;20040;-66
2021/12/19 12:17:29;;;;;;;22.30;11.35;;;;;;;4.84;97.34;100144.31;5050059;28;20048;-66
2021/12/19 12:19:57;;;;;;;20.88;10.43;;;;;;;4.91;96.19;100136.69;5060414;28;20044;-66
2021/12/19 12:25:14;;;;;;;27.25;14.20;;;;;;;5.03;97.49;100120.47;5061494;28;20054;-66
2021/12/19 12:27:42;;;;;;;24.05;11.90;;;;;;;5.08;96.59;100118.84;5058967;28;20404;-66
2021/12/19 12:30:17;;;;;;;23.65;12.25;;;;;;;5.12;95.72;100110.28;5061352;28;20021;-66